メインページ
METAR-TAF:

METAR-TAF

空港 :

マドリード, スペイン

アドルフォ・スアレス・マドリード=バラハス空港

緯度: 40-27N, 経度: 003-33W, 海抜: 609m

現時点の気象観測

当レポートは25分前の06:00(UTC)に作成
の風 1kt
気温 4°C
湿度 93%
気圧 1022 hPa
視程10km以上
高度300ftの雲はほとんどない
高度400ftの千切れ雲あり

METAR: LEMD 140600Z 17001KT 9999 FEW003 BKN004 04/03 Q1022 TEMPO 4500 BR BKN003

時間: 07:25 (06:25 UTC)

予報

当レポートは1時間25分前の05:00(UTC)に作成
予報は14日の 06時(UTC)から 15日の 12時(UTC)まで有効
南西の風 7kt
視程10km以上
高度400ftの雲はほとんどない
高度600ftの千切れ雲あり
確率 40% :
14日の 12時(UTC)から 14日の 18時(UTC)まで一時的に
南西の風 12kt、最大23ktの突風を伴う
確率 30% :
14日の 06時(UTC)から 14日の 10時(UTC)まで一時的に
視程: 1500m
高度300ftの千切れ雲あり
15日の 02時(UTC)から 15日の 04時(UTC)まで徐々に
高度300ftの雲は散在している

TAF: LEMD 140500Z 1406/1512 23007KT 9999 FEW004 BKN006 TX10/1415Z TN02/1406Z PROB40 TEMPO 1412/1418 22012G23KT PROB30 TEMPO 1406/1410 1500 BR BKN003 BECMG 1502/1504 SCT003

4,000以上の空港の気象観測と天気予報(METAR報とTAF報)

利用可能な観測所は地図上に黄色い丸と赤い丸で示す。

丸の上にカーソルを重ねると観測所名を参照できる。

次にクリックすると気象観測と天気予報を参照できる。

マップの切り替え:黒色「×」印の緑ボタンをクリックして拡大、「-」印の緑ボタンをクリックして縮小、緑色の三角印をクリックして隣りの地図に切り替え


METAR-TAF: